sensor_id;sensor_type;location;lat;lon;timestamp;pressure;altitude;pressure_sealevel;temperature;humidity
52745;BME280;38637;49.984;20.426;2023-02-03T00:00:44;99777.53;;;1.06;97.38
52745;BME280;38637;49.984;20.426;2023-02-03T00:03:09;99782.16;;;1.12;97.40
52745;BME280;38637;49.984;20.426;2023-02-03T00:05:35;99774.38;;;1.17;97.19
52745;BME280;38637;49.984;20.426;2023-02-03T00:08:02;99779.31;;;1.13;96.23
52745;BME280;38637;49.984;20.426;2023-02-03T00:10:28;99777.69;;;1.19;96.41
52745;BME280;38637;49.984;20.426;2023-02-03T00:12:53;99779.75;;;1.17;95.24
52745;BME280;38637;49.984;20.426;2023-02-03T00:15:19;99777.38;;;1.07;94.84
52745;BME280;38637;49.984;20.426;2023-02-03T00:17:44;99782.75;;;1.07;94.96
52745;BME280;38637;49.984;20.426;2023-02-03T00:20:10;99781.34;;;1.11;95.43
52745;BME280;38637;49.984;20.426;2023-02-03T00:22:36;99786.25;;;1.08;93.96
52745;BME280;38637;49.984;20.426;2023-02-03T00:25:01;99784.97;;;1.04;94.25
52745;BME280;38637;49.984;20.426;2023-02-03T00:27:27;99787.75;;;1.10;93.85
52745;BME280;38637;49.984;20.426;2023-02-03T00:29:52;99789.34;;;1.05;93.20
52745;BME280;38637;49.984;20.426;2023-02-03T00:32:17;99786.25;;;1.08;93.71
52745;BME280;38637;49.984;20.426;2023-02-03T00:34:42;99799.78;;;1.14;93.74
52745;BME280;38637;49.984;20.426;2023-02-03T00:37:08;99796.50;;;1.19;92.95
52745;BME280;38637;49.984;20.426;2023-02-03T00:39:35;99813.75;;;1.25;92.70
52745;BME280;38637;49.984;20.426;2023-02-03T00:42:02;99829.34;;;1.29;92.32
52745;BME280;38637;49.984;20.426;2023-02-03T00:44:28;99821.50;;;1.34;92.32
52745;BME280;38637;49.984;20.426;2023-02-03T00:46:53;99830.59;;;1.33;90.89
52745;BME280;38637;49.984;20.426;2023-02-03T00:49:19;99834.97;;;1.34;91.29
52745;BME280;38637;49.984;20.426;2023-02-03T00:51:44;99831.88;;;1.37;90.26
52745;BME280;38637;49.984;20.426;2023-02-03T00:54:09;99838.19;;;1.45;90.11
52745;BME280;38637;49.984;20.426;2023-02-03T00:56:35;99825.56;;;1.45;90.03
52745;BME280;38637;49.984;20.426;2023-02-03T00:59:00;99835.88;;;1.42;87.64
52745;BME280;38637;49.984;20.426;2023-02-03T01:01:26;99839.94;;;1.37;87.11
52745;BME280;38637;49.984;20.426;2023-02-03T01:03:53;99843.16;;;1.26;87.13
52745;BME280;38637;49.984;20.426;2023-02-03T01:06:20;99850.19;;;1.27;86.77
52745;BME280;38637;49.984;20.426;2023-02-03T01:08:46;99853.25;;;1.24;86.13
52745;BME280;38637;49.984;20.426;2023-02-03T01:11:18;99858.94;;;1.14;84.67
52745;BME280;38637;49.984;20.426;2023-02-03T01:13:44;99853.56;;;1.14;84.92
52745;BME280;38637;49.984;20.426;2023-02-03T01:16:11;99851.44;;;1.10;85.18
52745;BME280;38637;49.984;20.426;2023-02-03T01:18:37;99853.75;;;1.13;85.20
52745;BME280;38637;49.984;20.426;2023-02-03T01:23:31;99859.59;;;1.17;85.24
52745;BME280;38637;49.984;20.426;2023-02-03T01:26:01;99858.38;;;1.19;85.32
52745;BME280;38637;49.984;20.426;2023-02-03T01:28:26;99862.75;;;1.20;84.22
52745;BME280;38637;49.984;20.426;2023-02-03T01:30:51;99857.75;;;1.17;84.44
52745;BME280;38637;49.984;20.426;2023-02-03T01:33:17;99862.28;;;1.17;84.44
52745;BME280;38637;49.984;20.426;2023-02-03T01:35:42;99865.53;;;1.12;84.02
52745;BME280;38637;49.984;20.426;2023-02-03T01:38:07;99857.84;;;1.09;84.25
52745;BME280;38637;49.984;20.426;2023-02-03T01:40:33;99860.25;;;1.04;84.43
52745;BME280;38637;49.984;20.426;2023-02-03T01:42:58;99865.63;;;1.04;84.91
52745;BME280;38637;49.984;20.426;2023-02-03T01:45:23;99868.16;;;1.05;83.85
52745;BME280;38637;49.984;20.426;2023-02-03T01:47:52;99867.50;;;1.03;84.32
52745;BME280;38637;49.984;20.426;2023-02-03T01:50:26;99864.44;;;1.06;83.42
52745;BME280;38637;49.984;20.426;2023-02-03T01:52:58;99859.50;;;1.10;82.93
52745;BME280;38637;49.984;20.426;2023-02-03T01:55:31;99859.13;;;1.13;80.93
52745;BME280;38637;49.984;20.426;2023-02-03T01:58:03;99862.69;;;1.13;80.08
52745;BME280;38637;49.984;20.426;2023-02-03T02:00:31;99854.31;;;1.23;79.64
52745;BME280;38637;49.984;20.426;2023-02-03T02:02:58;99834.38;;;1.18;78.46
52745;BME280;38637;49.984;20.426;2023-02-03T02:05:29;99835.66;;;1.22;77.85
52745;BME280;38637;49.984;20.426;2023-02-03T02:07:57;99837.84;;;1.33;76.77
52745;BME280;38637;49.984;20.426;2023-02-03T02:10:24;99842.84;;;1.36;76.83
52745;BME280;38637;49.984;20.426;2023-02-03T02:12:50;99842.84;;;1.36;74.73
52745;BME280;38637;49.984;20.426;2023-02-03T02:15:16;99832.38;;;1.41;75.96
52745;BME280;38637;49.984;20.426;2023-02-03T02:31:16;99837.53;;;1.43;76.77
52745;BME280;38637;49.984;20.426;2023-02-03T02:33:58;99834.84;;;1.43;76.65
52745;BME280;38637;49.984;20.426;2023-02-03T02:36:35;99828.03;;;1.47;76.60
52745;BME280;38637;49.984;20.426;2023-02-03T02:41:56;99828.13;;;1.32;75.56
52745;BME280;38637;49.984;20.426;2023-02-03T02:44:37;99821.25;;;1.29;76.53
52745;BME280;38637;49.984;20.426;2023-02-03T02:47:09;99823.13;;;1.29;76.87
52745;BME280;38637;49.984;20.426;2023-02-03T02:49:51;99834.41;;;1.39;76.95
52745;BME280;38637;49.984;20.426;2023-02-03T02:52:19;99833.81;;;1.44;76.90
52745;BME280;38637;49.984;20.426;2023-02-03T02:54:51;99828.25;;;1.45;76.49
52745;BME280;38637;49.984;20.426;2023-02-03T02:57:19;99835.94;;;1.48;76.27
52745;BME280;38637;49.984;20.426;2023-02-03T02:59:46;99821.84;;;1.46;76.81
52745;BME280;38637;49.984;20.426;2023-02-03T03:02:12;99834.59;;;1.59;76.74
52745;BME280;38637;49.984;20.426;2023-02-03T03:04:38;99834.03;;;1.64;76.95
52745;BME280;38637;49.984;20.426;2023-02-03T03:07:14;99827.44;;;1.66;77.25
52745;BME280;38637;49.984;20.426;2023-02-03T03:09:53;99825.56;;;1.67;78.21
52745;BME280;38637;49.984;20.426;2023-02-03T03:12:30;99819.91;;;1.61;78.98
52745;BME280;38637;49.984;20.426;2023-02-03T03:15:09;99831.78;;;1.67;79.80
52745;BME280;38637;49.984;20.426;2023-02-03T03:17:41;99827.44;;;1.66;79.92
52745;BME280;38637;49.984;20.426;2023-02-03T03:20:11;99813.75;;;1.68;80.61
52745;BME280;38637;49.984;20.426;2023-02-03T03:22:47;99814.81;;;1.67;81.88
52745;BME280;38637;49.984;20.426;2023-02-03T03:25:17;99806.06;;;1.65;81.63
52745;BME280;38637;49.984;20.426;2023-02-03T03:27:48;99796.78;;;1.67;82.05
52745;BME280;38637;49.984;20.426;2023-02-03T03:30:20;99796.59;;;1.69;82.40
52745;BME280;38637;49.984;20.426;2023-02-03T03:32:47;99792.44;;;1.66;82.33
52745;BME280;38637;49.984;20.426;2023-02-03T03:35:13;99792.00;;;1.63;82.43
52745;BME280;38637;49.984;20.426;2023-02-03T03:37:58;99794.59;;;1.56;82.47
52745;BME280;38637;49.984;20.426;2023-02-03T03:42:57;99796.53;;;1.41;83.01
52745;BME280;38637;49.984;20.426;2023-02-03T03:51:07;99818.03;;;1.19;83.43
52745;BME280;38637;49.984;20.426;2023-02-03T03:53:35;99819.66;;;1.13;83.64
52745;BME280;38637;49.984;20.426;2023-02-03T03:56:05;99810.19;;;1.03;83.85
52745;BME280;38637;49.984;20.426;2023-02-03T03:58:33;99816.31;;;0.97;83.86
52745;BME280;38637;49.984;20.426;2023-02-03T04:01:03;99818.09;;;0.89;83.84
52745;BME280;38637;49.984;20.426;2023-02-03T04:03:37;99810.97;;;0.82;83.95
52745;BME280;38637;49.984;20.426;2023-02-03T04:06:03;99812.75;;;0.75;84.35
52745;BME280;38637;49.984;20.426;2023-02-03T04:08:29;99810.22;;;0.73;83.89
52745;BME280;38637;49.984;20.426;2023-02-03T04:10:54;99808.94;;;0.69;84.11
52745;BME280;38637;49.984;20.426;2023-02-03T04:13:19;99806.25;;;0.69;84.05
52745;BME280;38637;49.984;20.426;2023-02-03T04:15:45;99802.16;;;0.73;84.09
52745;BME280;38637;49.984;20.426;2023-02-03T04:18:14;99790.41;;;0.74;83.57
52745;BME280;38637;49.984;20.426;2023-02-03T04:20:40;99785.50;;;0.78;83.47
52745;BME280;38637;49.984;20.426;2023-02-03T04:23:06;99790.94;;;0.84;83.69
52745;BME280;38637;49.984;20.426;2023-02-03T04:25:32;99786.69;;;0.90;83.25
52745;BME280;38637;49.984;20.426;2023-02-03T04:27:57;99780.91;;;0.93;83.35
52745;BME280;38637;49.984;20.426;2023-02-03T04:30:23;99781.09;;;0.91;82.49
52745;BME280;38637;49.984;20.426;2023-02-03T04:32:48;99781.47;;;0.88;82.19
52745;BME280;38637;49.984;20.426;2023-02-03T04:35:14;99780.84;;;0.86;82.29
52745;BME280;38637;49.984;20.426;2023-02-03T04:37:40;99782.22;;;0.82;82.53
52745;BME280;38637;49.984;20.426;2023-02-03T04:40:06;99791.69;;;0.78;82.64
52745;BME280;38637;49.984;20.426;2023-02-03T04:42:31;99782.97;;;0.76;82.10
52745;BME280;38637;49.984;20.426;2023-02-03T04:44:57;99788.72;;;0.73;82.21
52745;BME280;38637;49.984;20.426;2023-02-03T04:47:22;99792.44;;;0.72;82.05
52745;BME280;38637;49.984;20.426;2023-02-03T04:49:47;99791.34;;;0.66;80.87
52745;BME280;38637;49.984;20.426;2023-02-03T04:52:13;99777.38;;;0.56;80.56
52745;BME280;38637;49.984;20.426;2023-02-03T04:54:38;99793.66;;;0.55;80.52
52745;BME280;38637;49.984;20.426;2023-02-03T04:57:05;99782.56;;;0.43;80.77
52745;BME280;38637;49.984;20.426;2023-02-03T04:59:30;99788.13;;;0.41;80.85
52745;BME280;38637;49.984;20.426;2023-02-03T05:01:55;99781.09;;;0.40;81.54
52745;BME280;38637;49.984;20.426;2023-02-03T05:04:21;99776.53;;;0.41;81.33
52745;BME280;38637;49.984;20.426;2023-02-03T05:06:46;99779.88;;;0.43;80.93
52745;BME280;38637;49.984;20.426;2023-02-03T05:09:12;99778.66;;;0.45;80.84
52745;BME280;38637;49.984;20.426;2023-02-03T05:11:37;99781.84;;;0.49;80.93
52745;BME280;38637;49.984;20.426;2023-02-03T05:14:03;99775.22;;;0.52;80.79
52745;BME280;38637;49.984;20.426;2023-02-03T05:16:28;99776.72;;;0.54;81.01
52745;BME280;38637;49.984;20.426;2023-02-03T05:18:54;99779.41;;;0.54;81.00
52745;BME280;38637;49.984;20.426;2023-02-03T05:21:19;99776.16;;;0.59;80.85
52745;BME280;38637;49.984;20.426;2023-02-03T05:23:44;99775.78;;;0.62;80.24
52745;BME280;38637;49.984;20.426;2023-02-03T05:26:10;99774.75;;;0.63;80.58
52745;BME280;38637;49.984;20.426;2023-02-03T05:28:35;99779.09;;;0.64;80.00
52745;BME280;38637;49.984;20.426;2023-02-03T05:31:01;99765.88;;;0.62;79.84
52745;BME280;38637;49.984;20.426;2023-02-03T05:33:28;99763.84;;;0.64;80.06
52745;BME280;38637;49.984;20.426;2023-02-03T05:35:53;99761.69;;;0.60;79.35
52745;BME280;38637;49.984;20.426;2023-02-03T05:38:19;99758.84;;;0.61;79.59
52745;BME280;38637;49.984;20.426;2023-02-03T05:40:49;99752.22;;;0.64;79.54
52745;BME280;38637;49.984;20.426;2023-02-03T05:43:33;99760.94;;;0.66;79.14
52745;BME280;38637;49.984;20.426;2023-02-03T05:45:59;99751.03;;;0.66;79.52
52745;BME280;38637;49.984;20.426;2023-02-03T05:48:25;99751.84;;;0.67;79.33
52745;BME280;38637;49.984;20.426;2023-02-03T05:50:51;99757.22;;;0.67;79.30
52745;BME280;38637;49.984;20.426;2023-02-03T05:53:16;99746.31;;;0.68;79.53
52745;BME280;38637;49.984;20.426;2023-02-03T05:55:41;99748.16;;;0.68;79.19
52745;BME280;38637;49.984;20.426;2023-02-03T05:58:06;99748.78;;;0.70;79.36
52745;BME280;38637;49.984;20.426;2023-02-03T06:00:32;99749.66;;;0.71;79.24
52745;BME280;38637;49.984;20.426;2023-02-03T06:02:59;99744.28;;;0.71;78.79
52745;BME280;38637;49.984;20.426;2023-02-03T06:05:27;99750.09;;;0.74;78.44
52745;BME280;38637;49.984;20.426;2023-02-03T06:07:52;99748.03;;;0.76;78.66
52745;BME280;38637;49.984;20.426;2023-02-03T06:10:18;99742.28;;;0.79;78.51
52745;BME280;38637;49.984;20.426;2023-02-03T06:12:43;99736.91;;;0.79;77.98
52745;BME280;38637;49.984;20.426;2023-02-03T06:15:09;99723.47;;;0.79;77.83
52745;BME280;38637;49.984;20.426;2023-02-03T06:17:35;99726.38;;;0.78;77.27
52745;BME280;38637;49.984;20.426;2023-02-03T06:20:05;99729.31;;;0.83;77.26
52745;BME280;38637;49.984;20.426;2023-02-03T06:22:31;99706.91;;;0.76;76.66
52745;BME280;38637;49.984;20.426;2023-02-03T06:24:56;99725.00;;;0.88;76.83
52745;BME280;38637;49.984;20.426;2023-02-03T06:27:22;99714.25;;;0.88;76.06
52745;BME280;38637;49.984;20.426;2023-02-03T06:29:47;99703.50;;;0.88;76.08
52745;BME280;38637;49.984;20.426;2023-02-03T06:32:13;99700.81;;;0.88;75.77
52745;BME280;38637;49.984;20.426;2023-02-03T06:34:38;99691.38;;;0.93;76.51
52745;BME280;38637;49.984;20.426;2023-02-03T06:37:03;99685.59;;;0.96;75.96
52745;BME280;38637;49.984;20.426;2023-02-03T06:39:29;99697.47;;;1.01;75.83
52745;BME280;38637;49.984;20.426;2023-02-03T06:41:54;99678.25;;;1.04;75.44
52745;BME280;38637;49.984;20.426;2023-02-03T06:44:20;99684.47;;;1.05;75.25
52745;BME280;38637;49.984;20.426;2023-02-03T06:46:45;99684.06;;;1.08;75.06
52745;BME280;38637;49.984;20.426;2023-02-03T06:49:11;99673.75;;;1.11;75.02
52745;BME280;38637;49.984;20.426;2023-02-03T06:51:36;99656.78;;;1.11;75.09
52745;BME280;38637;49.984;20.426;2023-02-03T06:54:02;99666.63;;;1.25;75.41
52745;BME280;38637;49.984;20.426;2023-02-03T06:56:30;99675.78;;;1.31;74.97
52745;BME280;38637;49.984;20.426;2023-02-03T06:58:55;99666.09;;;1.36;74.87
52745;BME280;38637;49.984;20.426;2023-02-03T07:01:21;99666.38;;;1.42;74.56
52745;BME280;38637;49.984;20.426;2023-02-03T07:03:47;99655.81;;;1.47;74.78
52745;BME280;38637;49.984;20.426;2023-02-03T07:06:13;99656.72;;;1.54;74.30
52745;BME280;38637;49.984;20.426;2023-02-03T07:08:39;99650.31;;;1.55;74.06
52745;BME280;38637;49.984;20.426;2023-02-03T07:11:05;99648.88;;;1.59;74.43
52745;BME280;38637;49.984;20.426;2023-02-03T07:13:30;99652.22;;;1.61;73.84
52745;BME280;38637;49.984;20.426;2023-02-03T07:15:55;99648.75;;;1.67;73.87
52745;BME280;38637;49.984;20.426;2023-02-03T07:18:21;99647.31;;;1.71;73.76
52745;BME280;38637;49.984;20.426;2023-02-03T07:20:50;99650.47;;;1.75;73.85
52745;BME280;38637;49.984;20.426;2023-02-03T07:23:16;99647.16;;;1.79;73.76
52745;BME280;38637;49.984;20.426;2023-02-03T07:25:41;99647.41;;;1.84;73.21
52745;BME280;38637;49.984;20.426;2023-02-03T07:28:06;99649.91;;;1.93;73.03
52745;BME280;38637;49.984;20.426;2023-02-03T07:30:32;99653.28;;;2.01;73.03
52745;BME280;38637;49.984;20.426;2023-02-03T07:32:57;99641.94;;;2.06;72.73
52745;BME280;38637;49.984;20.426;2023-02-03T07:35:22;99636.75;;;2.11;72.29
52745;BME280;38637;49.984;20.426;2023-02-03T07:37:48;99635.94;;;2.17;71.93
52745;BME280;38637;49.984;20.426;2023-02-03T07:40:14;99635.38;;;2.22;71.49
52745;BME280;38637;49.984;20.426;2023-02-03T07:42:44;99638.06;;;2.28;71.42
52745;BME280;38637;49.984;20.426;2023-02-03T07:45:11;99629.00;;;2.36;71.10
52745;BME280;38637;49.984;20.426;2023-02-03T07:47:36;99625.91;;;2.46;70.81
52745;BME280;38637;49.984;20.426;2023-02-03T07:50:03;99618.25;;;2.56;70.75
52745;BME280;38637;49.984;20.426;2023-02-03T07:52:29;99612.28;;;2.61;69.33
52745;BME280;38637;49.984;20.426;2023-02-03T07:54:54;99611.06;;;2.76;70.26
52745;BME280;38637;49.984;20.426;2023-02-03T07:57:19;99611.28;;;2.88;69.91
52745;BME280;38637;49.984;20.426;2023-02-03T07:59:44;99600.91;;;2.92;69.39
52745;BME280;38637;49.984;20.426;2023-02-03T08:02:10;99598.44;;;2.97;68.69
52745;BME280;38637;49.984;20.426;2023-02-03T08:04:36;99601.56;;;3.01;68.95
52745;BME280;38637;49.984;20.426;2023-02-03T08:07:02;99592.81;;;3.05;68.30
52745;BME280;38637;49.984;20.426;2023-02-03T08:09:27;99594.69;;;3.11;67.75
52745;BME280;38637;49.984;20.426;2023-02-03T08:11:52;99582.66;;;3.14;67.32
52745;BME280;38637;49.984;20.426;2023-02-03T08:14:18;99569.56;;;3.17;66.68
52745;BME280;38637;49.984;20.426;2023-02-03T08:16:43;99578.94;;;3.21;67.15
52745;BME280;38637;49.984;20.426;2023-02-03T08:19:10;99571.25;;;3.25;66.42
52745;BME280;38637;49.984;20.426;2023-02-03T08:21:35;99573.72;;;3.20;64.43
52745;BME280;38637;49.984;20.426;2023-02-03T08:24:01;99572.25;;;3.24;65.54
52745;BME280;38637;49.984;20.426;2023-02-03T08:26:26;99563.16;;;3.25;65.82
52745;BME280;38637;49.984;20.426;2023-02-03T08:28:51;99561.03;;;3.27;64.54
52745;BME280;38637;49.984;20.426;2023-02-03T08:31:17;99553.38;;;3.31;64.25
52745;BME280;38637;49.984;20.426;2023-02-03T08:33:42;99549.22;;;3.35;63.81
52745;BME280;38637;49.984;20.426;2023-02-03T08:36:08;99547.31;;;3.42;63.22
52745;BME280;38637;49.984;20.426;2023-02-03T08:38:34;99547.75;;;3.52;63.23
52745;BME280;38637;49.984;20.426;2023-02-03T08:41:00;99537.31;;;3.62;63.10
52745;BME280;38637;49.984;20.426;2023-02-03T08:43:25;99527.31;;;3.69;62.50
52745;BME280;38637;49.984;20.426;2023-02-03T08:45:50;99526.47;;;3.76;62.34
52745;BME280;38637;49.984;20.426;2023-02-03T08:48:16;99525.22;;;3.78;61.75
52745;BME280;38637;49.984;20.426;2023-02-03T08:50:41;99524.81;;;3.75;61.17
52745;BME280;38637;49.984;20.426;2023-02-03T08:53:08;99510.47;;;3.81;60.95
52745;BME280;38637;49.984;20.426;2023-02-03T08:55:34;99509.59;;;3.87;60.92
52745;BME280;38637;49.984;20.426;2023-02-03T08:58:02;99504.16;;;3.94;60.31
52745;BME280;38637;49.984;20.426;2023-02-03T09:00:27;99503.09;;;4.01;61.12
52745;BME280;38637;49.984;20.426;2023-02-03T09:02:52;99496.22;;;4.05;60.29
52745;BME280;38637;49.984;20.426;2023-02-03T09:05:18;99483.72;;;4.11;60.04
52745;BME280;38637;49.984;20.426;2023-02-03T09:07:43;99472.47;;;4.14;59.51
52745;BME280;38637;49.984;20.426;2023-02-03T09:10:09;99466.41;;;4.19;59.63
52745;BME280;38637;49.984;20.426;2023-02-03T09:12:35;99466.19;;;4.20;59.23
52745;BME280;38637;49.984;20.426;2023-02-03T09:15:00;99462.81;;;4.25;58.84
52745;BME280;38637;49.984;20.426;2023-02-03T09:17:25;99463.00;;;4.30;58.53
52745;BME280;38637;49.984;20.426;2023-02-03T09:19:52;99458.38;;;4.37;58.29
52745;BME280;38637;49.984;20.426;2023-02-03T09:22:17;99454.41;;;4.40;58.32
52745;BME280;38637;49.984;20.426;2023-02-03T09:24:42;99452.69;;;4.45;57.23
52745;BME280;38637;49.984;20.426;2023-02-03T09:27:08;99456.03;;;4.47;57.43
52745;BME280;38637;49.984;20.426;2023-02-03T09:29:33;99442.50;;;4.47;57.31
52745;BME280;38637;49.984;20.426;2023-02-03T09:31:58;99439.75;;;4.54;57.66
52745;BME280;38637;49.984;20.426;2023-02-03T09:34:25;99440.31;;;4.56;57.08
52745;BME280;38637;49.984;20.426;2023-02-03T09:36:50;99430.13;;;4.58;55.56
52745;BME280;38637;49.984;20.426;2023-02-03T09:39:15;99419.88;;;4.67;56.00
52745;BME280;38637;49.984;20.426;2023-02-03T09:41:55;99428.16;;;4.72;56.07
52745;BME280;38637;49.984;20.426;2023-02-03T09:47:33;99406.69;;;4.95;55.79
52745;BME280;38637;49.984;20.426;2023-02-03T09:50:05;99409.53;;;5.00;55.65
52745;BME280;38637;49.984;20.426;2023-02-03T09:52:38;99413.06;;;5.01;55.05
52745;BME280;38637;49.984;20.426;2023-02-03T09:55:23;99397.72;;;4.95;55.60
52745;BME280;38637;49.984;20.426;2023-02-03T10:00:34;99369.59;;;4.77;54.81
52745;BME280;38637;49.984;20.426;2023-02-03T10:08:34;99377.22;;;4.87;54.15
52745;BME280;38637;49.984;20.426;2023-02-03T10:11:14;99360.84;;;5.00;53.08
52745;BME280;38637;49.984;20.426;2023-02-03T10:19:17;99346.84;;;5.22;52.88
52745;BME280;38637;49.984;20.426;2023-02-03T10:21:51;99349.69;;;5.27;52.88
52745;BME280;38637;49.984;20.426;2023-02-03T10:24:25;99336.75;;;5.29;52.88
52745;BME280;38637;49.984;20.426;2023-02-03T10:26:53;99322.16;;;5.30;51.83
52745;BME280;38637;49.984;20.426;2023-02-03T10:29:22;99328.78;;;5.34;51.66
52745;BME280;38637;49.984;20.426;2023-02-03T10:31:53;99312.31;;;5.36;51.70
52745;BME280;38637;49.984;20.426;2023-02-03T10:34:19;99293.94;;;5.38;50.25
52745;BME280;38637;49.984;20.426;2023-02-03T10:36:54;99292.44;;;5.42;51.19
52745;BME280;38637;49.984;20.426;2023-02-03T10:39:28;99281.25;;;5.50;51.80
52745;BME280;38637;49.984;20.426;2023-02-03T10:41:55;99272.00;;;5.58;51.26
52745;BME280;38637;49.984;20.426;2023-02-03T10:44:26;99271.19;;;5.69;50.75
52745;BME280;38637;49.984;20.426;2023-02-03T10:46:52;99261.44;;;5.80;51.45
52745;BME280;38637;49.984;20.426;2023-02-03T10:49:18;99260.00;;;5.77;50.96
52745;BME280;38637;49.984;20.426;2023-02-03T10:51:50;99264.84;;;5.75;51.13
52745;BME280;38637;49.984;20.426;2023-02-03T10:54:33;99254.00;;;5.75;50.44
52745;BME280;38637;49.984;20.426;2023-02-03T10:57:05;99241.41;;;5.81;51.15
52745;BME280;38637;49.984;20.426;2023-02-03T10:59:34;99238.34;;;5.89;51.25
52745;BME280;38637;49.984;20.426;2023-02-03T11:02:06;99235.19;;;5.92;51.29
52745;BME280;38637;49.984;20.426;2023-02-03T11:04:32;99232.44;;;5.80;51.48
52745;BME280;38637;49.984;20.426;2023-02-03T11:07:03;99211.81;;;5.56;51.77
52745;BME280;38637;49.984;20.426;2023-02-03T11:09:40;99212.50;;;5.39;51.82
52745;BME280;38637;49.984;20.426;2023-02-03T11:12:13;99204.09;;;5.29;52.67
52745;BME280;38637;49.984;20.426;2023-02-03T11:14:50;99196.44;;;5.26;52.98
52745;BME280;38637;49.984;20.426;2023-02-03T11:17:21;99177.59;;;5.19;53.41
52745;BME280;38637;49.984;20.426;2023-02-03T11:20:17;99177.44;;;5.14;53.89
52745;BME280;38637;49.984;20.426;2023-02-03T11:22:43;99172.38;;;5.06;54.37
52745;BME280;38637;49.984;20.426;2023-02-03T11:25:21;99160.69;;;4.94;54.38
52745;BME280;38637;49.984;20.426;2023-02-03T11:27:50;99161.91;;;4.79;55.43
52745;BME280;38637;49.984;20.426;2023-02-03T11:30:23;99153.28;;;4.71;56.87
52745;BME280;38637;49.984;20.426;2023-02-03T11:32:50;99141.50;;;4.65;56.39
52745;BME280;38637;49.984;20.426;2023-02-03T11:35:20;99134.09;;;4.60;57.39
52745;BME280;38637;49.984;20.426;2023-02-03T11:37:48;99130.78;;;4.58;58.45
52745;BME280;38637;49.984;20.426;2023-02-03T11:40:23;99126.66;;;4.56;58.86
52745;BME280;38637;49.984;20.426;2023-02-03T11:50:46;99075.81;;;4.16;63.15
52745;BME280;38637;49.984;20.426;2023-02-03T11:56:13;99056.25;;;4.02;64.76
52745;BME280;38637;49.984;20.426;2023-02-03T12:02:00;99038.19;;;3.84;67.26
52745;BME280;38637;49.984;20.426;2023-02-03T12:04:44;99027.09;;;3.74;67.75
52745;BME280;38637;49.984;20.426;2023-02-03T12:07:27;99016.66;;;3.59;69.06
52745;BME280;38637;49.984;20.426;2023-02-03T12:15:33;98994.31;;;3.34;71.65
52745;BME280;38637;49.984;20.426;2023-02-03T12:18:21;98968.38;;;3.33;71.37
52745;BME280;38637;49.984;20.426;2023-02-03T12:23:56;98954.41;;;3.17;72.97
52745;BME280;38637;49.984;20.426;2023-02-03T12:26:38;98946.41;;;3.11;73.59
52745;BME280;38637;49.984;20.426;2023-02-03T12:29:11;98921.75;;;3.07;74.49
52745;BME280;38637;49.984;20.426;2023-02-03T12:36:56;98905.56;;;3.07;75.41
52745;BME280;38637;49.984;20.426;2023-02-03T12:39:40;98894.16;;;3.05;75.47
52745;BME280;38637;49.984;20.426;2023-02-03T12:42:17;98877.41;;;3.03;76.55
52745;BME280;38637;49.984;20.426;2023-02-03T12:44:51;98861.22;;;3.03;76.44
52745;BME280;38637;49.984;20.426;2023-02-03T12:47:23;98857.09;;;3.01;76.49
52745;BME280;38637;49.984;20.426;2023-02-03T12:49:55;98847.34;;;2.99;77.44
52745;BME280;38637;49.984;20.426;2023-02-03T12:52:35;98841.94;;;2.99;77.30
52745;BME280;38637;49.984;20.426;2023-02-03T13:01:19;98818.13;;;2.96;77.36
52745;BME280;38637;49.984;20.426;2023-02-03T13:04:08;98811.53;;;2.92;77.80
52745;BME280;38637;49.984;20.426;2023-02-03T13:06:45;98806.84;;;2.88;77.83
52745;BME280;38637;49.984;20.426;2023-02-03T13:14:56;98770.66;;;2.77;78.43
52745;BME280;38637;49.984;20.426;2023-02-03T13:17:28;98763.03;;;2.74;78.94
52745;BME280;38637;49.984;20.426;2023-02-03T13:19:57;98756.13;;;2.78;78.69
52745;BME280;38637;49.984;20.426;2023-02-03T13:22:24;98751.34;;;2.80;79.33
52745;BME280;38637;49.984;20.426;2023-02-03T13:25:08;98748.66;;;2.80;79.42
52745;BME280;38637;49.984;20.426;2023-02-03T13:27:57;98736.22;;;2.79;79.63
52745;BME280;38637;49.984;20.426;2023-02-03T13:30:42;98732.47;;;2.80;80.08
52745;BME280;38637;49.984;20.426;2023-02-03T13:33:50;98725.19;;;2.81;80.18
52745;BME280;38637;49.984;20.426;2023-02-03T13:36:49;98709.63;;;2.83;80.13
52745;BME280;38637;49.984;20.426;2023-02-03T13:39:27;98693.44;;;2.83;81.36
52745;BME280;38637;49.984;20.426;2023-02-03T13:42:20;98683.47;;;2.83;80.86
52745;BME280;38637;49.984;20.426;2023-02-03T13:44:50;98686.41;;;2.82;81.03
52745;BME280;38637;49.984;20.426;2023-02-03T13:47:28;98673.75;;;2.82;80.96
52745;BME280;38637;49.984;20.426;2023-02-03T13:49:57;98661.09;;;2.83;80.78
52745;BME280;38637;49.984;20.426;2023-02-03T13:52:34;98655.91;;;2.81;81.16
52745;BME280;38637;49.984;20.426;2023-02-03T13:55:00;98644.31;;;2.81;81.62
52745;BME280;38637;49.984;20.426;2023-02-03T13:57:37;98641.88;;;2.79;81.71
52745;BME280;38637;49.984;20.426;2023-02-03T14:00:06;98628.59;;;2.78;81.72
52745;BME280;38637;49.984;20.426;2023-02-03T14:02:54;98609.72;;;2.78;81.43
52745;BME280;38637;49.984;20.426;2023-02-03T14:05:41;98607.03;;;2.78;81.27
52745;BME280;38637;49.984;20.426;2023-02-03T14:24:10;98549.84;;;2.75;82.52
52745;BME280;38637;49.984;20.426;2023-02-03T14:26:39;98540.91;;;2.75;83.15
52745;BME280;38637;49.984;20.426;2023-02-03T14:29:08;98537.66;;;2.73;82.71
52745;BME280;38637;49.984;20.426;2023-02-03T14:37:25;98508.81;;;2.73;83.60
52745;BME280;38637;49.984;20.426;2023-02-03T14:42:35;98491.56;;;2.74;83.48
52745;BME280;38637;49.984;20.426;2023-02-03T14:47:52;98489.94;;;2.73;83.40
52745;BME280;38637;49.984;20.426;2023-02-03T14:50:45;98480.22;;;2.72;83.81
52745;BME280;38637;49.984;20.426;2023-02-03T14:53:33;98479.38;;;2.72;83.21
52745;BME280;38637;49.984;20.426;2023-02-03T14:59:30;98459.94;;;2.70;84.13
52745;BME280;38637;49.984;20.426;2023-02-03T15:04:26;98447.16;;;2.65;84.12
52745;BME280;38637;49.984;20.426;2023-02-03T15:06:52;98446.47;;;2.70;84.10